createdAt,value
2018-02-08T00:02:22.984Z,85.00
2018-02-08T00:04:49.407Z,85.93
2018-02-08T00:07:15.895Z,82.07
2018-02-08T00:09:43.685Z,85.22
2018-02-08T00:12:10.239Z,89.28
2018-02-08T00:14:37.423Z,90.43
2018-02-08T00:17:03.973Z,88.80
2018-02-08T00:19:31.162Z,86.75
2018-02-08T00:21:59.848Z,87.25
2018-02-08T00:24:27.326Z,85.37
2018-02-08T00:26:54.519Z,89.87
2018-02-08T00:29:21.056Z,83.03
2018-02-08T00:31:48.331Z,87.15
2018-02-08T00:34:15.607Z,90.35
2018-02-08T00:36:42.165Z,85.75
2018-02-08T00:39:08.722Z,90.35
2018-02-08T00:41:35.998Z,89.05
2018-02-08T00:44:02.557Z,88.20
2018-02-08T00:46:29.117Z,91.60
2018-02-08T00:48:55.618Z,88.35
2018-02-08T00:51:22.110Z,94.32
2018-02-08T00:53:49.403Z,95.87
2018-02-08T00:56:16.575Z,87.90
2018-02-08T00:58:43.770Z,89.60
2018-02-08T01:01:10.212Z,90.07
2018-02-08T01:03:36.761Z,90.80
2018-02-08T01:06:03.916Z,85.65
2018-02-08T01:08:31.105Z,88.87
2018-02-08T01:10:57.665Z,94.70
2018-02-08T01:13:24.844Z,87.30
2018-02-08T01:15:51.395Z,89.28
2018-02-08T01:18:17.790Z,88.85
2018-02-08T01:20:44.235Z,90.60
2018-02-08T01:23:10.682Z,92.13
2018-02-08T01:25:37.139Z,90.07
2018-02-08T01:28:03.601Z,90.87
2018-02-08T01:30:30.133Z,91.35
2018-02-08T01:32:57.321Z,88.10
2018-02-08T01:35:23.862Z,88.95
2018-02-08T01:37:51.149Z,92.07
2018-02-08T01:40:18.315Z,87.68
2018-02-08T01:42:44.769Z,87.35
2018-02-08T01:45:11.194Z,91.03
2018-02-08T01:47:37.684Z,91.72
2018-02-08T01:50:04.110Z,91.32
2018-02-08T01:52:30.531Z,87.82
2018-02-08T01:54:56.953Z,88.57
2018-02-08T01:57:23.501Z,88.35
2018-02-08T01:59:50.672Z,90.72
2018-02-08T02:02:17.889Z,95.10
2018-02-08T02:04:44.405Z,88.37
2018-02-08T02:07:10.962Z,85.30
2018-02-08T02:09:38.258Z,92.32
2018-02-08T02:12:04.794Z,98.25
2018-02-08T02:14:31.966Z,94.18
2018-02-08T02:16:59.730Z,100.18
2018-02-08T02:19:26.311Z,95.97
2018-02-08T02:21:53.501Z,102.20
2018-02-08T02:24:20.041Z,101.68
2018-02-08T02:26:47.245Z,106.78
2018-02-08T02:29:14.140Z,108.80
2018-02-08T02:31:41.184Z,103.78
2018-02-08T02:34:07.708Z,113.15
2018-02-08T02:36:34.982Z,117.22
2018-02-08T02:39:02.243Z,117.80
2018-02-08T02:41:29.531Z,116.78
2018-02-08T02:43:56.703Z,209.77
2018-02-08T02:46:23.115Z,128.85
2018-02-08T02:48:49.623Z,162.98
2018-02-08T02:51:16.040Z,152.55
2018-02-08T02:53:42.476Z,202.30
2018-02-08T02:56:08.984Z,148.38
2018-02-08T02:58:36.136Z,193.82
2018-02-08T03:01:03.431Z,124.62
2018-02-08T03:03:30.619Z,156.90
2018-02-08T03:05:57.685Z,129.75
2018-02-08T03:08:24.128Z,176.77
2018-02-08T03:10:50.584Z,199.52
2018-02-08T03:13:17.740Z,140.05
2018-02-08T03:15:44.896Z,165.37
2018-02-08T03:18:11.384Z,129.30
2018-02-08T03:20:38.659Z,129.50
2018-02-08T03:23:05.845Z,159.93
2018-02-08T03:25:32.281Z,222.32
2018-02-08T03:27:59.563Z,190.85
2018-02-08T03:30:26.904Z,149.65
2018-02-08T03:32:53.394Z,131.32
2018-02-08T03:35:21.034Z,134.80
2018-02-08T03:37:47.472Z,122.50
2018-02-08T03:40:13.902Z,120.45
2018-02-08T03:42:40.329Z,118.62
2018-02-08T03:45:07.488Z,125.20
2018-02-08T03:47:33.970Z,124.78
2018-02-08T03:50:01.129Z,133.57
2018-02-08T03:52:28.289Z,122.87
2018-02-08T03:54:54.689Z,124.35
2018-02-08T03:57:21.194Z,136.32
2018-02-08T03:59:47.618Z,122.35
2018-02-08T04:02:14.070Z,123.20
2018-02-08T04:04:40.482Z,109.80
2018-02-08T04:07:07.665Z,113.65
2018-02-08T04:09:34.945Z,117.70
2018-02-08T04:12:01.499Z,122.80
2018-02-08T04:14:28.925Z,127.03
2018-02-08T04:16:55.436Z,132.93
2018-02-08T04:19:21.992Z,133.18
2018-02-08T04:21:49.178Z,138.93
2018-02-08T04:24:15.690Z,134.20
2018-02-08T04:26:42.097Z,159.77
2018-02-08T04:29:09.495Z,156.00
2018-02-08T04:31:36.011Z,135.30
2018-02-08T04:34:03.285Z,151.52
2018-02-08T04:36:30.489Z,182.43
2018-02-08T04:39:09.290Z,191.10
2018-02-08T04:41:48.018Z,189.25
2018-02-08T04:44:27.566Z,156.00
2018-02-08T04:47:05.993Z,140.20
2018-02-08T04:49:32.398Z,157.40
2018-02-08T04:51:58.823Z,147.85
2018-02-08T04:54:25.266Z,144.37
2018-02-08T04:56:51.691Z,124.57
2018-02-08T04:59:18.167Z,95.32
2018-02-08T05:01:45.440Z,90.38
2018-02-08T05:04:12.714Z,91.20
2018-02-08T05:06:39.170Z,92.20
2018-02-08T05:09:06.340Z,96.40
2018-02-08T05:11:33.617Z,93.43
2018-02-08T05:14:00.047Z,96.10
2018-02-08T05:16:26.495Z,101.12
2018-02-08T05:18:53.683Z,98.62
2018-02-08T05:21:20.855Z,100.05
2018-02-08T05:23:47.436Z,102.87
2018-02-08T05:26:13.888Z,103.93
2018-02-08T05:28:41.166Z,99.65
2018-02-08T05:31:08.333Z,98.55
2018-02-08T05:33:35.481Z,98.95
2018-02-08T05:36:01.963Z,102.53
2018-02-08T05:38:29.259Z,100.80
2018-02-08T05:40:55.795Z,108.22
2018-02-08T05:43:22.971Z,109.80
2018-02-08T05:45:49.526Z,114.65
2018-02-08T05:48:16.700Z,113.30
2018-02-08T05:50:43.150Z,114.22
2018-02-08T05:53:10.330Z,119.18
2018-02-08T05:55:36.751Z,114.82
2018-02-08T05:58:03.885Z,114.28
2018-02-08T06:00:30.297Z,112.07
2018-02-08T06:02:57.584Z,119.22
2018-02-08T06:05:24.855Z,117.62
2018-02-08T06:07:52.060Z,116.72
2018-02-08T06:10:18.572Z,115.80
2018-02-08T06:12:46.484Z,123.62
2018-02-08T06:15:12.912Z,123.80
2018-02-08T06:17:39.490Z,128.05
2018-02-08T06:20:06.404Z,138.73
2018-02-08T06:22:32.809Z,139.15
2018-02-08T06:24:59.989Z,134.27
2018-02-08T06:27:26.431Z,132.80
2018-02-08T06:29:53.608Z,130.35
2018-02-08T06:32:20.778Z,131.57
2018-02-08T06:34:47.974Z,129.35
2018-02-08T06:37:14.406Z,126.47
2018-02-08T06:39:41.686Z,130.93
2018-02-08T06:42:08.869Z,124.05
2018-02-08T06:44:35.344Z,134.07
2018-02-08T06:47:01.805Z,134.35
2018-02-08T06:49:28.209Z,133.43
2018-02-08T06:51:55.401Z,133.65
2018-02-08T06:54:21.844Z,131.15
2018-02-08T06:56:48.986Z,138.23
2018-02-08T06:59:19.370Z,132.85
2018-02-08T07:01:47.358Z,133.98
2018-02-08T07:04:14.491Z,131.85
2018-02-08T07:06:40.986Z,128.45
2018-02-08T07:09:07.425Z,131.45
2018-02-08T07:11:34.589Z,127.67
2018-02-08T07:14:01.492Z,134.40
2018-02-08T07:16:28.042Z,129.02
2018-02-08T07:18:54.574Z,126.28
2018-02-08T07:21:21.030Z,127.20
2018-02-08T07:23:47.430Z,134.82
2018-02-08T07:26:13.970Z,127.53
2018-02-08T07:28:40.423Z,130.12
2018-02-08T07:31:07.697Z,128.48
2018-02-08T07:33:34.255Z,119.65
2018-02-08T07:36:00.712Z,123.15
2018-02-08T07:38:27.892Z,127.00
2018-02-08T07:40:54.442Z,122.07
2018-02-08T07:43:21.716Z,127.95
2018-02-08T07:45:48.135Z,127.90
2018-02-08T07:48:14.629Z,127.38
2018-02-08T07:50:41.786Z,123.27
2018-02-08T07:53:08.973Z,119.43
2018-02-08T07:55:36.128Z,121.30
2018-02-08T07:58:03.325Z,121.00
2018-02-08T08:00:29.878Z,122.60
2018-02-08T08:02:56.846Z,124.15
2018-02-08T08:05:23.289Z,123.07
2018-02-08T08:07:50.482Z,120.35
2018-02-08T08:10:17.029Z,120.90
2018-02-08T08:12:44.197Z,118.93
2018-02-08T08:15:11.475Z,122.57
2018-02-08T08:17:38.672Z,121.53
2018-02-08T08:20:05.338Z,147.95
2018-02-08T08:22:31.787Z,151.20
2018-02-08T08:24:58.734Z,121.13
2018-02-08T08:27:25.239Z,115.70
2018-02-08T08:29:51.661Z,117.62
2018-02-08T08:32:21.885Z,105.35
2018-02-08T08:34:49.163Z,108.32
2018-02-08T08:37:15.721Z,102.82
2018-02-08T08:39:42.982Z,74.57
2018-02-08T08:42:10.270Z,82.32
2018-02-08T08:44:37.481Z,81.15
2018-02-08T08:47:03.908Z,79.05
2018-02-08T08:49:30.348Z,84.23
2018-02-08T08:51:57.625Z,75.80
2018-02-08T08:54:24.813Z,72.70
2018-02-08T08:56:51.355Z,70.47
2018-02-08T08:59:18.629Z,72.85
2018-02-08T09:01:45.907Z,68.22
2018-02-08T09:04:13.177Z,75.20
2018-02-08T09:06:40.454Z,72.85
2018-02-08T09:09:07.726Z,79.35
2018-02-08T09:11:34.907Z,77.20
2018-02-08T09:14:01.354Z,83.70
2018-02-08T09:16:28.542Z,89.43
2018-02-08T09:18:55.091Z,82.32
2018-02-08T09:21:21.541Z,76.37
2018-02-08T09:23:48.701Z,77.43
2018-02-08T09:26:15.900Z,81.57
2018-02-08T09:28:42.314Z,77.75
2018-02-08T09:31:08.743Z,79.97
2018-02-08T09:33:35.166Z,80.97
2018-02-08T09:36:01.608Z,76.62
2018-02-08T09:38:28.767Z,79.57
2018-02-08T09:40:55.933Z,77.78
2018-02-08T09:43:23.123Z,77.28
2018-02-08T09:45:50.984Z,85.12
2018-02-08T09:48:17.467Z,79.60
2018-02-08T09:50:44.666Z,79.43
2018-02-08T09:53:11.110Z,82.12
2018-02-08T09:55:37.510Z,86.65
2018-02-08T09:58:03.955Z,77.35
2018-02-08T10:00:30.453Z,82.40
2018-02-08T10:02:57.650Z,86.75
2018-02-08T10:05:24.093Z,80.35
2018-02-08T10:07:51.367Z,71.35
2018-02-08T10:10:17.928Z,75.32
2018-02-08T10:12:45.306Z,74.32
2018-02-08T10:15:11.748Z,80.82
2018-02-08T10:17:39.238Z,83.23
2018-02-08T10:20:05.796Z,73.65
2018-02-08T10:22:33.684Z,78.68
2018-02-08T10:25:00.247Z,82.55
2018-02-08T10:27:26.647Z,80.62
2018-02-08T10:29:53.137Z,80.72
2018-02-08T10:32:20.330Z,72.32
2018-02-08T10:34:47.535Z,71.50
2018-02-08T10:37:14.074Z,77.03
2018-02-08T10:39:40.550Z,73.95
2018-02-08T10:42:08.038Z,104.60
2018-02-08T10:44:34.473Z,69.12
2018-02-08T10:47:00.884Z,71.22
2018-02-08T10:49:27.364Z,75.32
2018-02-08T10:51:53.919Z,80.70
2018-02-08T10:54:21.787Z,73.00
2018-02-08T10:56:48.238Z,86.78
2018-02-08T10:59:14.644Z,69.35
2018-02-08T11:01:41.112Z,72.97
2018-02-08T11:04:07.532Z,72.68
2018-02-08T11:06:33.984Z,72.60
2018-02-08T11:09:01.189Z,70.70
2018-02-08T11:11:27.628Z,82.70
2018-02-08T11:13:54.889Z,78.70
2018-02-08T11:16:22.063Z,71.97
2018-02-08T11:18:49.215Z,92.12
2018-02-08T11:21:16.396Z,82.30
2018-02-08T11:23:43.530Z,74.18
2018-02-08T11:26:13.920Z,77.10
2018-02-08T11:28:40.681Z,73.37
2018-02-08T11:31:07.955Z,75.65
2018-02-08T11:33:35.113Z,73.53
2018-02-08T11:36:02.254Z,75.25
2018-02-08T11:38:28.673Z,98.60
2018-02-08T11:40:55.071Z,73.55
2018-02-08T11:43:22.466Z,67.57
2018-02-08T11:45:48.902Z,80.40
2018-02-08T11:48:15.306Z,85.55
2018-02-08T11:50:41.732Z,80.90
2018-02-08T11:53:08.209Z,78.03
2018-02-08T11:55:34.665Z,74.32
2018-02-08T11:58:01.843Z,78.80
2018-02-08T12:00:28.291Z,75.37
2018-02-08T12:02:55.568Z,80.97
2018-02-08T12:05:22.842Z,73.72
2018-02-08T12:07:50.003Z,76.45
2018-02-08T12:10:17.288Z,88.78
2018-02-08T12:12:44.447Z,73.37
2018-02-08T12:15:11.736Z,82.70
2018-02-08T12:17:39.011Z,78.22
2018-02-08T12:20:06.015Z,75.03
2018-02-08T12:22:32.443Z,72.12
2018-02-08T12:24:58.995Z,80.70
2018-02-08T12:27:26.266Z,69.57
2018-02-08T12:29:52.720Z,75.68
2018-02-08T12:32:19.994Z,74.95
2018-02-08T12:34:47.170Z,78.12
2018-02-08T12:37:13.591Z,75.72
2018-02-08T12:39:40.013Z,70.68
2018-02-08T12:42:06.416Z,115.88
2018-02-08T12:44:33.565Z,73.43
2018-02-08T12:47:00.005Z,112.70
2018-02-08T12:49:26.518Z,79.28
2018-02-08T12:51:53.736Z,77.40
2018-02-08T12:54:20.248Z,87.62
2018-02-08T12:56:48.181Z,72.03
2018-02-08T12:59:14.647Z,75.60
2018-02-08T13:01:41.153Z,87.90
2018-02-08T13:04:08.428Z,74.97
2018-02-08T13:06:34.885Z,79.55
2018-02-08T13:09:01.272Z,69.62
2018-02-08T13:11:27.722Z,73.80
2018-02-08T13:13:54.156Z,73.82
2018-02-08T13:16:20.707Z,74.70
2018-02-08T13:18:47.985Z,82.80
2018-02-08T13:21:14.539Z,68.55
2018-02-08T13:23:41.813Z,82.25
2018-02-08T13:26:09.101Z,79.20
2018-02-08T13:28:37.590Z,86.07
2018-02-08T13:31:04.864Z,75.40
2018-02-08T13:33:32.018Z,67.55
2018-02-08T13:35:59.226Z,76.55
2018-02-08T13:38:25.675Z,69.93
2018-02-08T13:40:52.150Z,74.50
2018-02-08T13:43:18.679Z,84.90
2018-02-08T13:45:45.941Z,107.45
2018-02-08T13:48:19.363Z,81.80
2018-02-08T13:51:01.430Z,82.55
2018-02-08T13:53:45.620Z,77.75
2018-02-08T13:56:29.542Z,89.93
2018-02-08T13:58:56.837Z,102.97
2018-02-08T14:01:30.044Z,81.05
2018-02-08T14:03:57.317Z,105.07
2018-02-08T14:06:24.594Z,97.43
2018-02-08T14:08:51.042Z,110.72
2018-02-08T14:11:18.628Z,120.47
2018-02-08T14:13:45.819Z,76.90
2018-02-08T14:16:12.264Z,84.55
2018-02-08T14:18:38.815Z,88.18
2018-02-08T14:21:06.089Z,81.07
2018-02-08T14:23:33.364Z,75.75
2018-02-08T14:26:00.844Z,93.30
2018-02-08T14:28:28.668Z,83.28
2018-02-08T14:30:55.187Z,79.10
2018-02-08T14:33:23.054Z,93.70
2018-02-08T14:35:49.634Z,88.50
2018-02-08T14:38:16.915Z,75.50
2018-02-08T14:40:43.364Z,79.20
2018-02-08T14:43:10.640Z,87.82
2018-02-08T14:45:38.387Z,88.28
2018-02-08T14:48:04.985Z,82.47
2018-02-08T14:50:31.398Z,81.63
2018-02-08T14:52:57.995Z,77.97
2018-02-08T14:55:25.271Z,78.73
2018-02-08T14:57:53.260Z,76.70
2018-02-08T15:00:20.504Z,84.75
2018-02-08T15:02:46.990Z,73.00
2018-02-08T15:05:14.149Z,95.07
2018-02-08T15:07:41.439Z,78.00
2018-02-08T15:10:08.661Z,83.00
2018-02-08T15:12:35.477Z,80.03
2018-02-08T15:15:02.734Z,77.70
2018-02-08T15:17:30.128Z,79.85
2018-02-08T15:19:56.692Z,81.45
2018-02-08T15:22:23.125Z,78.87
2018-02-08T15:24:50.330Z,79.22
2018-02-08T15:27:17.041Z,83.20
2018-02-08T15:29:44.256Z,87.78
2018-02-08T15:32:11.421Z,102.00
2018-02-08T15:34:38.608Z,80.72
2018-02-08T15:37:05.054Z,116.82
2018-02-08T15:39:35.796Z,84.37
2018-02-08T15:42:03.076Z,75.62
2018-02-08T15:44:29.738Z,79.60
2018-02-08T15:46:56.184Z,81.82
2018-02-08T15:49:22.749Z,79.20
2018-02-08T15:51:49.933Z,80.30
2018-02-08T15:54:16.385Z,77.30
2018-02-08T15:56:42.940Z,76.95
2018-02-08T15:59:09.362Z,75.78
2018-02-08T16:01:35.949Z,76.95
2018-02-08T16:04:03.709Z,78.40
2018-02-08T16:06:30.842Z,94.47
2018-02-08T16:08:57.294Z,82.25
2018-02-08T16:11:23.821Z,80.95
2018-02-08T16:13:51.104Z,81.30
2018-02-08T16:16:19.597Z,83.30
2018-02-08T16:18:46.874Z,77.50
2018-02-08T16:21:13.334Z,74.28
2018-02-08T16:23:39.754Z,91.20
2018-02-08T16:26:06.194Z,80.53
2018-02-08T16:28:32.658Z,78.55
2018-02-08T16:30:59.254Z,73.90
2018-02-08T16:33:26.426Z,72.25
2018-02-08T16:35:53.707Z,69.47
2018-02-08T16:38:20.179Z,71.72
2018-02-08T16:40:47.203Z,69.18
2018-02-08T16:43:14.380Z,70.20
2018-02-08T16:45:41.672Z,73.47
2018-02-08T16:48:09.256Z,75.20
2018-02-08T16:50:37.125Z,73.78
2018-02-08T16:53:03.713Z,73.37
2018-02-08T16:55:30.361Z,85.18
2018-02-08T16:57:57.639Z,77.03
2018-02-08T17:00:24.400Z,79.57
2018-02-08T17:02:51.680Z,74.93
2018-02-08T17:05:18.418Z,73.87
2018-02-08T17:07:45.712Z,84.45
2018-02-08T17:10:12.988Z,74.85
2018-02-08T17:12:39.440Z,79.80
2018-02-08T17:15:06.819Z,70.87
2018-02-08T17:17:33.476Z,72.40
2018-02-08T17:20:00.445Z,74.22
2018-02-08T17:22:28.982Z,73.40
2018-02-08T17:24:55.791Z,74.60
2018-02-08T17:27:24.724Z,70.68
2018-02-08T17:29:52.800Z,74.10
2018-02-08T17:32:19.948Z,71.03
2018-02-08T17:34:46.434Z,69.70
2018-02-08T17:37:13.632Z,73.50
2018-02-08T17:39:40.037Z,64.70
2018-02-08T17:42:06.529Z,67.85
2018-02-08T17:44:33.806Z,73.10
2018-02-08T17:47:00.257Z,69.47
2018-02-08T17:49:27.406Z,70.55
2018-02-08T17:51:53.888Z,66.68
2018-02-08T17:54:20.446Z,78.05
2018-02-08T17:56:47.006Z,81.50
2018-02-08T17:59:13.442Z,76.12
2018-02-08T18:01:39.938Z,73.10
2018-02-08T18:04:06.478Z,74.68
2018-02-08T18:06:32.979Z,74.75
2018-02-08T18:08:59.403Z,71.62
2018-02-08T18:11:25.915Z,77.95
2018-02-08T18:13:52.401Z,75.35
2018-02-08T18:16:19.606Z,75.55
2018-02-08T18:18:46.137Z,77.28
2018-02-08T18:21:12.690Z,73.25
2018-02-08T18:23:39.868Z,75.50
2018-02-08T18:26:06.327Z,77.80
2018-02-08T18:28:32.883Z,75.00
2018-02-08T18:30:59.295Z,74.20
2018-02-08T18:33:26.531Z,72.87
2018-02-08T18:35:53.014Z,75.95
2018-02-08T18:38:20.299Z,74.53
2018-02-08T18:40:46.720Z,78.62
2018-02-08T18:43:13.250Z,75.12
2018-02-08T18:45:39.706Z,80.15
2018-02-08T18:48:06.213Z,80.07
2018-02-08T18:50:32.639Z,78.10
2018-02-08T18:52:59.282Z,76.82
2018-02-08T18:55:25.941Z,73.90
2018-02-08T18:57:52.701Z,85.43
2018-02-08T19:00:20.014Z,77.10
2018-02-08T19:02:46.543Z,78.55
2018-02-08T19:05:12.976Z,77.87
2018-02-08T19:07:40.185Z,78.00
2018-02-08T19:10:06.635Z,74.78
2018-02-08T19:12:33.177Z,87.47
2018-02-08T19:14:59.653Z,82.15
2018-02-08T19:17:26.136Z,75.63
2018-02-08T19:19:53.363Z,79.87
2018-02-08T19:22:20.540Z,79.68
2018-02-08T19:24:47.096Z,81.20
2018-02-08T19:27:14.297Z,80.57
2018-02-08T19:29:40.827Z,83.97
2018-02-08T19:32:08.202Z,79.47
2018-02-08T19:34:34.862Z,79.25
2018-02-08T19:37:01.627Z,81.47
2018-02-08T19:39:28.187Z,81.00
2018-02-08T19:41:55.602Z,77.78
2018-02-08T19:44:22.118Z,80.68
2018-02-08T19:46:48.678Z,80.87
2018-02-08T19:49:15.236Z,79.20
2018-02-08T19:51:42.404Z,80.62
2018-02-08T19:54:09.595Z,84.32
2018-02-08T19:56:36.244Z,91.47
2018-02-08T19:59:02.905Z,95.68
2018-02-08T20:01:29.665Z,96.35
2018-02-08T20:03:56.430Z,85.75
2018-02-08T20:06:23.190Z,93.05
2018-02-08T20:08:50.481Z,85.57
2018-02-08T20:11:17.282Z,78.18
2018-02-08T20:13:43.889Z,80.07
2018-02-08T20:16:10.417Z,78.45
2018-02-08T20:18:37.929Z,78.10
2018-02-08T20:21:04.445Z,78.90
2018-02-08T20:23:31.145Z,74.37
2018-02-08T20:25:58.728Z,76.20
2018-02-08T20:28:25.800Z,79.68
2018-02-08T20:30:58.442Z,78.72
2018-02-08T20:33:25.054Z,79.90
2018-02-08T20:35:52.429Z,84.03
2018-02-08T20:38:19.087Z,86.53
2018-02-08T20:40:47.563Z,82.85
2018-02-08T20:43:20.392Z,80.50
2018-02-08T20:45:47.045Z,80.00
2018-02-08T20:48:14.486Z,81.20
2018-02-08T20:50:41.800Z,82.65
2018-02-08T20:53:09.267Z,80.27
2018-02-08T20:55:36.312Z,78.53
2018-02-08T20:58:03.399Z,81.22
2018-02-08T21:00:29.977Z,79.20
2018-02-08T21:02:56.457Z,81.57
2018-02-08T21:05:22.956Z,86.07
2018-02-08T21:07:50.328Z,91.87
2018-02-08T21:10:16.892Z,98.57
2018-02-08T21:12:43.586Z,90.05
2018-02-08T21:15:10.860Z,90.00
2018-02-08T21:17:38.135Z,111.95
2018-02-08T21:20:05.584Z,107.68
2018-02-08T21:22:32.085Z,108.37
2018-02-08T21:24:59.205Z,106.80
2018-02-08T21:27:26.398Z,146.65
2018-02-08T21:29:53.593Z,131.07
2018-02-08T21:32:20.144Z,129.65
2018-02-08T21:34:47.418Z,98.22
2018-02-08T21:37:14.581Z,90.10
2018-02-08T21:39:41.865Z,84.40
2018-02-08T21:42:08.425Z,84.68
2018-02-08T21:44:34.875Z,83.45
2018-02-08T21:47:02.158Z,84.53
2018-02-08T21:49:29.224Z,83.10
2018-02-08T21:51:55.782Z,85.40
2018-02-08T21:54:23.366Z,84.72
2018-02-08T21:56:50.542Z,80.30
2018-02-08T21:59:17.029Z,84.43
2018-02-08T22:01:43.551Z,79.50
2018-02-08T22:04:10.824Z,77.32
2018-02-08T22:06:37.385Z,81.37
2018-02-08T22:09:04.658Z,79.05
2018-02-08T22:11:31.931Z,83.53
2018-02-08T22:13:59.656Z,83.30
2018-02-08T22:16:26.108Z,75.65
2018-02-08T22:18:53.166Z,75.18
2018-02-08T22:21:19.593Z,78.37
2018-02-08T22:23:46.838Z,78.50
2018-02-08T22:26:13.537Z,77.97
2018-02-08T22:28:40.094Z,75.25
2018-02-08T22:31:06.626Z,77.10
2018-02-08T22:33:33.208Z,73.70
2018-02-08T22:36:00.485Z,75.70
2018-02-08T22:38:28.174Z,72.60
2018-02-08T22:40:54.616Z,76.95
2018-02-08T22:43:21.910Z,73.78
2018-02-08T22:45:48.462Z,73.60
2018-02-08T22:48:14.865Z,76.97
2018-02-08T22:50:41.368Z,80.55
2018-02-08T22:53:08.561Z,79.28
2018-02-08T22:55:34.978Z,76.72
2018-02-08T22:58:02.166Z,76.68
2018-02-08T23:00:29.442Z,77.80
2018-02-08T23:02:56.626Z,77.90
2018-02-08T23:05:23.079Z,84.22
2018-02-08T23:07:49.628Z,82.82
2018-02-08T23:10:16.902Z,81.93
2018-02-08T23:12:44.069Z,77.70
2018-02-08T23:15:11.355Z,78.75
2018-02-08T23:17:38.627Z,80.47
2018-02-08T23:20:08.832Z,78.72
2018-02-08T23:22:35.251Z,82.22
2018-02-08T23:25:01.776Z,83.47
2018-02-08T23:27:29.052Z,79.70
2018-02-08T23:29:56.325Z,83.15
2018-02-08T23:32:23.599Z,81.20
2018-02-08T23:34:50.873Z,84.62
2018-02-08T23:37:18.807Z,83.75
2018-02-08T23:39:45.320Z,79.55
2018-02-08T23:42:12.507Z,79.80
2018-02-08T23:44:38.957Z,81.00
2018-02-08T23:47:05.506Z,81.63
2018-02-08T23:49:32.679Z,82.57
2018-02-08T23:51:59.852Z,86.10
2018-02-08T23:54:26.332Z,82.22
2018-02-08T23:56:52.765Z,89.53
2018-02-08T23:59:19.241Z,86.37
